sensor_id;sensor_type;location;lat;lon;timestamp;pressure;altitude;pressure_sealevel;temperature;humidity
73860;BME280;62197;51.632;13.700;2024-03-08T00:01:13;101099.09;;;-1.89;84.88
73860;BME280;62197;51.632;13.700;2024-03-08T00:03:39;101096.31;;;-1.80;84.82
73860;BME280;62197;51.632;13.700;2024-03-08T00:06:05;101090.16;;;-1.74;84.43
73860;BME280;62197;51.632;13.700;2024-03-08T00:08:31;101098.94;;;-1.81;84.58
73860;BME280;62197;51.632;13.700;2024-03-08T00:10:56;101093.84;;;-1.84;84.50
73860;BME280;62197;51.632;13.700;2024-03-08T00:13:21;101093.88;;;-1.86;85.20
73860;BME280;62197;51.632;13.700;2024-03-08T00:15:46;101090.56;;;-1.91;85.38
73860;BME280;62197;51.632;13.700;2024-03-08T00:18:12;101093.31;;;-1.98;85.71
73860;BME280;62197;51.632;13.700;2024-03-08T00:20:37;101085.66;;;-2.02;85.79
73860;BME280;62197;51.632;13.700;2024-03-08T00:23:02;101082.72;;;-1.86;85.39
73860;BME280;62197;51.632;13.700;2024-03-08T00:25:28;101078.38;;;-1.84;85.45
73860;BME280;62197;51.632;13.700;2024-03-08T00:27:53;101089.78;;;-1.94;85.61
73860;BME280;62197;51.632;13.700;2024-03-08T00:30:21;101085.59;;;-2.00;86.14
73860;BME280;62197;51.632;13.700;2024-03-08T00:32:48;101082.38;;;-2.08;86.68
73860;BME280;62197;51.632;13.700;2024-03-08T00:35:14;101079.09;;;-2.15;86.62
73860;BME280;62197;51.632;13.700;2024-03-08T00:37:39;101080.00;;;-2.17;87.03
73860;BME280;62197;51.632;13.700;2024-03-08T00:40:05;101074.97;;;-2.22;87.18
73860;BME280;62197;51.632;13.700;2024-03-08T00:42:32;101070.66;;;-2.21;87.29
73860;BME280;62197;51.632;13.700;2024-03-08T00:44:58;101075.97;;;-2.29;87.67
73860;BME280;62197;51.632;13.700;2024-03-08T00:47:24;101066.53;;;-2.30;87.91
73860;BME280;62197;51.632;13.700;2024-03-08T00:49:49;101068.31;;;-2.32;87.92
73860;BME280;62197;51.632;13.700;2024-03-08T00:52:14;101066.75;;;-2.39;88.41
73860;BME280;62197;51.632;13.700;2024-03-08T00:54:39;101072.84;;;-2.43;88.35
73860;BME280;62197;51.632;13.700;2024-03-08T00:57:05;101072.03;;;-2.45;88.50
73860;BME280;62197;51.632;13.700;2024-03-08T00:59:31;101078.16;;;-2.51;88.60
73860;BME280;62197;51.632;13.700;2024-03-08T01:01:58;101073.03;;;-2.52;88.79
73860;BME280;62197;51.632;13.700;2024-03-08T01:04:24;101063.66;;;-2.56;89.17
73860;BME280;62197;51.632;13.700;2024-03-08T01:06:51;101062.97;;;-2.63;89.33
73860;BME280;62197;51.632;13.700;2024-03-08T01:09:16;101050.25;;;-2.71;89.56
73860;BME280;62197;51.632;13.700;2024-03-08T01:11:42;101056.25;;;-2.70;90.30
73860;BME280;62197;51.632;13.700;2024-03-08T01:14:08;101056.34;;;-2.75;90.29
73860;BME280;62197;51.632;13.700;2024-03-08T01:16:33;101055.41;;;-2.71;90.24
73860;BME280;62197;51.632;13.700;2024-03-08T01:18:58;101051.72;;;-2.59;90.05
73860;BME280;62197;51.632;13.700;2024-03-08T01:21:24;101051.72;;;-2.59;90.41
73860;BME280;62197;51.632;13.700;2024-03-08T01:23:49;101042.47;;;-2.68;90.08
73860;BME280;62197;51.632;13.700;2024-03-08T01:26:14;101042.13;;;-2.52;89.68
73860;BME280;62197;51.632;13.700;2024-03-08T01:28:40;101043.94;;;-2.57;89.66
73860;BME280;62197;51.632;13.700;2024-03-08T01:31:05;101049.94;;;-2.57;89.88
73860;BME280;62197;51.632;13.700;2024-03-08T01:33:31;101036.19;;;-2.56;89.89
73860;BME280;62197;51.632;13.700;2024-03-08T01:35:56;101040.81;;;-2.70;90.15
73860;BME280;62197;51.632;13.700;2024-03-08T01:38:22;101035.69;;;-2.72;90.54
73860;BME280;62197;51.632;13.700;2024-03-08T01:40:48;101024.50;;;-2.71;90.76
73860;BME280;62197;51.632;13.700;2024-03-08T01:43:26;101024.78;;;-2.84;90.58
73860;BME280;62197;51.632;13.700;2024-03-08T01:45:58;101017.69;;;-2.73;90.48
73860;BME280;62197;51.632;13.700;2024-03-08T01:48:30;101021.06;;;-2.70;90.37
73860;BME280;62197;51.632;13.700;2024-03-08T01:50:56;101011.75;;;-2.77;90.67
73860;BME280;62197;51.632;13.700;2024-03-08T01:53:26;101002.47;;;-2.84;90.98
73860;BME280;62197;51.632;13.700;2024-03-08T01:55:54;101008.50;;;-2.85;91.23
73860;BME280;62197;51.632;13.700;2024-03-08T01:58:21;101013.53;;;-2.79;91.62
73860;BME280;62197;51.632;13.700;2024-03-08T02:00:48;101007.56;;;-2.81;91.70
73860;BME280;62197;51.632;13.700;2024-03-08T02:03:16;101003.16;;;-2.76;91.46
73860;BME280;62197;51.632;13.700;2024-03-08T02:05:41;100996.19;;;-2.71;91.62
73860;BME280;62197;51.632;13.700;2024-03-08T02:08:07;100996.28;;;-2.75;91.20
73860;BME280;62197;51.632;13.700;2024-03-08T02:10:33;100992.94;;;-2.79;91.54
73860;BME280;62197;51.632;13.700;2024-03-08T02:13:01;100999.97;;;-2.87;91.36
73860;BME280;62197;51.632;13.700;2024-03-08T02:15:26;100988.69;;;-2.81;91.92
73860;BME280;62197;51.632;13.700;2024-03-08T02:17:53;100991.38;;;-2.86;91.90
73860;BME280;62197;51.632;13.700;2024-03-08T02:20:18;100979.44;;;-2.90;92.29
73860;BME280;62197;51.632;13.700;2024-03-08T02:22:44;100981.13;;;-2.89;92.37
73860;BME280;62197;51.632;13.700;2024-03-08T02:25:10;100983.50;;;-2.80;92.69
73860;BME280;62197;51.632;13.700;2024-03-08T02:27:36;100977.56;;;-2.82;92.68
73860;BME280;62197;51.632;13.700;2024-03-08T02:30:01;100972.53;;;-2.88;92.77
73860;BME280;62197;51.632;13.700;2024-03-08T02:32:27;100981.06;;;-2.86;92.78
73860;BME280;62197;51.632;13.700;2024-03-08T02:34:56;100975.06;;;-2.86;92.96
73860;BME280;62197;51.632;13.700;2024-03-08T02:37:21;100970.53;;;-2.75;93.05
73860;BME280;62197;51.632;13.700;2024-03-08T02:39:47;100971.31;;;-2.72;92.65
73860;BME280;62197;51.632;13.700;2024-03-08T02:42:13;100971.19;;;-2.65;92.58
73860;BME280;62197;51.632;13.700;2024-03-08T02:44:42;100969.72;;;-2.77;92.15
73860;BME280;62197;51.632;13.700;2024-03-08T02:47:09;100966.25;;;-2.75;92.56
73860;BME280;62197;51.632;13.700;2024-03-08T02:49:34;100966.91;;;-2.67;92.95
73860;BME280;62197;51.632;13.700;2024-03-08T02:51:59;100968.72;;;-2.70;92.60
73860;BME280;62197;51.632;13.700;2024-03-08T02:54:24;100966.31;;;-2.78;92.73
73860;BME280;62197;51.632;13.700;2024-03-08T02:56:50;100967.00;;;-2.70;92.41
73860;BME280;62197;51.632;13.700;2024-03-08T02:59:16;100957.84;;;-2.83;92.65
73860;BME280;62197;51.632;13.700;2024-03-08T03:01:42;100962.88;;;-2.78;93.03
73860;BME280;62197;51.632;13.700;2024-03-08T03:04:08;100958.69;;;-2.82;92.88
73860;BME280;62197;51.632;13.700;2024-03-08T03:06:33;100953.53;;;-2.82;92.98
73860;BME280;62197;51.632;13.700;2024-03-08T03:08:59;100960.28;;;-2.77;92.71
73860;BME280;62197;51.632;13.700;2024-03-08T03:11:24;100962.09;;;-2.82;93.14
73860;BME280;62197;51.632;13.700;2024-03-08T03:13:49;100961.22;;;-2.81;93.07
73860;BME280;62197;51.632;13.700;2024-03-08T03:16:18;100962.16;;;-2.85;93.05
73860;BME280;62197;51.632;13.700;2024-03-08T03:18:46;100956.22;;;-2.87;93.39
73860;BME280;62197;51.632;13.700;2024-03-08T03:21:12;100957.84;;;-2.83;92.85
73860;BME280;62197;51.632;13.700;2024-03-08T03:23:38;100962.06;;;-2.80;93.16
73860;BME280;62197;51.632;13.700;2024-03-08T03:26:05;100958.00;;;-2.90;92.80
73860;BME280;62197;51.632;13.700;2024-03-08T03:28:32;100962.47;;;-3.00;93.54
73860;BME280;62197;51.632;13.700;2024-03-08T03:30:58;100959.09;;;-3.02;93.75
73860;BME280;62197;51.632;13.700;2024-03-08T03:33:24;100959.34;;;-3.13;93.57
73860;BME280;62197;51.632;13.700;2024-03-08T03:35:49;100956.88;;;-3.17;93.85
73860;BME280;62197;51.632;13.700;2024-03-08T03:38:17;100959.84;;;-2.97;94.68
73860;BME280;62197;51.632;13.700;2024-03-08T03:40:42;100959.47;;;-2.79;93.80
73860;BME280;62197;51.632;13.700;2024-03-08T03:43:10;100960.94;;;-2.67;93.18
73860;BME280;62197;51.632;13.700;2024-03-08T03:45:36;100957.63;;;-2.74;93.01
73860;BME280;62197;51.632;13.700;2024-03-08T03:48:02;100955.31;;;-2.86;93.23
73860;BME280;62197;51.632;13.700;2024-03-08T03:50:28;100948.34;;;-2.81;93.04
73860;BME280;62197;51.632;13.700;2024-03-08T03:52:53;100956.16;;;-2.85;93.21
73860;BME280;62197;51.632;13.700;2024-03-08T03:55:18;100950.19;;;-2.86;93.29
73860;BME280;62197;51.632;13.700;2024-03-08T03:57:44;100947.88;;;-2.98;93.26
73860;BME280;62197;51.632;13.700;2024-03-08T04:00:11;100946.28;;;-3.05;93.75
73860;BME280;62197;51.632;13.700;2024-03-08T04:02:40;100948.94;;;-3.08;93.83
73860;BME280;62197;51.632;13.700;2024-03-08T04:05:06;100945.69;;;-3.16;93.89
73860;BME280;62197;51.632;13.700;2024-03-08T04:07:32;100944.63;;;-3.08;94.03
73860;BME280;62197;51.632;13.700;2024-03-08T04:09:57;100946.31;;;-3.07;94.10
73860;BME280;62197;51.632;13.700;2024-03-08T04:12:23;100940.38;;;-3.09;94.26
73860;BME280;62197;51.632;13.700;2024-03-08T04:14:48;100949.00;;;-3.11;94.45
73860;BME280;62197;51.632;13.700;2024-03-08T04:17:13;100942.84;;;-3.04;94.38
73860;BME280;62197;51.632;13.700;2024-03-08T04:19:39;100942.09;;;-3.09;94.19
73860;BME280;62197;51.632;13.700;2024-03-08T04:22:05;100946.38;;;-3.10;94.46
73860;BME280;62197;51.632;13.700;2024-03-08T04:24:32;100940.38;;;-3.10;94.45
73860;BME280;62197;51.632;13.700;2024-03-08T04:26:58;100942.09;;;-3.09;94.26
73860;BME280;62197;51.632;13.700;2024-03-08T04:29:24;100943.16;;;-3.18;94.10
73860;BME280;62197;51.632;13.700;2024-03-08T04:31:49;100938.94;;;-3.22;94.62
73860;BME280;62197;51.632;13.700;2024-03-08T04:34:14;100938.16;;;-3.25;94.57
73860;BME280;62197;51.632;13.700;2024-03-08T04:36:40;100932.84;;;-3.16;95.01
73860;BME280;62197;51.632;13.700;2024-03-08T04:39:05;100927.81;;;-3.22;94.46
73860;BME280;62197;51.632;13.700;2024-03-08T04:41:30;100933.81;;;-3.22;94.88
73860;BME280;62197;51.632;13.700;2024-03-08T04:43:56;100929.34;;;-3.14;95.11
73860;BME280;62197;51.632;13.700;2024-03-08T04:46:23;100932.59;;;-3.07;94.63
73860;BME280;62197;51.632;13.700;2024-03-08T04:48:48;100942.19;;;-3.12;94.63
73860;BME280;62197;51.632;13.700;2024-03-08T04:51:14;100940.34;;;-3.07;95.90
73860;BME280;62197;51.632;13.700;2024-03-08T04:53:39;100930.78;;;-1.94;97.33
73860;BME280;62197;51.632;13.700;2024-03-08T04:56:04;100927.94;;;-1.83;94.54
73860;BME280;62197;51.632;13.700;2024-03-08T04:58:34;100928.19;;;-1.60;93.59
73860;BME280;62197;51.632;13.700;2024-03-08T05:01:01;100934.28;;;-1.96;92.18
73860;BME280;62197;51.632;13.700;2024-03-08T05:03:26;100928.63;;;-2.09;92.91
73860;BME280;62197;51.632;13.700;2024-03-08T05:05:52;100925.03;;;-2.04;91.00
73860;BME280;62197;51.632;13.700;2024-03-08T05:08:18;100921.22;;;-1.89;90.79
73860;BME280;62197;51.632;13.700;2024-03-08T05:10:44;100932.59;;;-1.97;90.92
73860;BME280;62197;51.632;13.700;2024-03-08T05:13:09;100923.47;;;-2.09;91.36
73860;BME280;62197;51.632;13.700;2024-03-08T05:15:34;100925.09;;;-1.73;89.51
73860;BME280;62197;51.632;13.700;2024-03-08T05:18:00;100928.28;;;-2.29;89.76
73860;BME280;62197;51.632;13.700;2024-03-08T05:20:25;100931.13;;;-2.42;91.60
73860;BME280;62197;51.632;13.700;2024-03-08T05:22:51;100931.81;;;-1.67;89.50
73860;BME280;62197;51.632;13.700;2024-03-08T05:25:17;100925.06;;;-2.05;90.12
73860;BME280;62197;51.632;13.700;2024-03-08T05:27:43;100929.44;;;-1.44;88.70
73860;BME280;62197;51.632;13.700;2024-03-08T05:30:08;100921.81;;;-1.79;89.13
73860;BME280;62197;51.632;13.700;2024-03-08T05:32:39;100922.31;;;-2.31;89.23
73860;BME280;62197;51.632;13.700;2024-03-08T05:35:05;100923.91;;;-2.27;90.10
73860;BME280;62197;51.632;13.700;2024-03-08T05:37:32;100926.16;;;-1.81;88.49
73860;BME280;62197;51.632;13.700;2024-03-08T05:39:57;100915.47;;;-2.33;89.58
73860;BME280;62197;51.632;13.700;2024-03-08T05:42:23;100922.16;;;-2.25;90.27
73860;BME280;62197;51.632;13.700;2024-03-08T05:44:48;100923.44;;;-1.75;88.59
73860;BME280;62197;51.632;13.700;2024-03-08T05:47:14;100914.53;;;-2.30;89.17
73860;BME280;62197;51.632;13.700;2024-03-08T05:49:41;100911.72;;;-2.56;90.36
73860;BME280;62197;51.632;13.700;2024-03-08T05:52:07;100908.78;;;-2.77;91.70
73860;BME280;62197;51.632;13.700;2024-03-08T05:54:32;100911.56;;;-2.86;92.43
73860;BME280;62197;51.632;13.700;2024-03-08T05:56:58;100914.28;;;-2.92;93.23
73860;BME280;62197;51.632;13.700;2024-03-08T05:59:23;100908.34;;;-2.95;93.53
73860;BME280;62197;51.632;13.700;2024-03-08T06:01:48;100911.78;;;-2.95;93.92
73860;BME280;62197;51.632;13.700;2024-03-08T06:04:14;100916.88;;;-2.93;93.71
73860;BME280;62197;51.632;13.700;2024-03-08T06:06:39;100914.28;;;-2.92;93.90
73860;BME280;62197;51.632;13.700;2024-03-08T06:09:05;100908.28;;;-2.92;94.07
73860;BME280;62197;51.632;13.700;2024-03-08T06:11:36;100921.00;;;-2.86;93.93
73860;BME280;62197;51.632;13.700;2024-03-08T06:14:02;100917.50;;;-2.82;93.95
73860;BME280;62197;51.632;13.700;2024-03-08T06:16:28;100914.78;;;-2.76;93.85
73860;BME280;62197;51.632;13.700;2024-03-08T06:18:57;100918.09;;;-2.71;93.42
73860;BME280;62197;51.632;13.700;2024-03-08T06:21:23;100917.06;;;-2.62;93.31
73860;BME280;62197;51.632;13.700;2024-03-08T06:23:53;100916.03;;;-2.57;92.97
73860;BME280;62197;51.632;13.700;2024-03-08T06:26:20;100919.31;;;-2.50;93.47
73860;BME280;62197;51.632;13.700;2024-03-08T06:28:45;100921.63;;;-2.40;92.57
73860;BME280;62197;51.632;13.700;2024-03-08T06:31:10;100917.31;;;-2.38;91.95
73860;BME280;62197;51.632;13.700;2024-03-08T06:33:37;100920.63;;;-2.33;91.82
73860;BME280;62197;51.632;13.700;2024-03-08T06:36:02;100916.97;;;-2.24;91.62
73860;BME280;62197;51.632;13.700;2024-03-08T06:38:27;100909.91;;;-2.16;91.71
73860;BME280;62197;51.632;13.700;2024-03-08T06:40:53;100905.31;;;-2.06;90.79
73860;BME280;62197;51.632;13.700;2024-03-08T06:43:19;100901.75;;;-2.01;90.38
73860;BME280;62197;51.632;13.700;2024-03-08T06:45:45;100905.06;;;-1.95;90.49
73860;BME280;62197;51.632;13.700;2024-03-08T06:48:14;100910.78;;;-1.84;89.95
73860;BME280;62197;51.632;13.700;2024-03-08T06:50:40;100904.56;;;-1.77;90.18
73860;BME280;62197;51.632;13.700;2024-03-08T06:53:05;100899.97;;;-1.66;89.72
73860;BME280;62197;51.632;13.700;2024-03-08T06:55:31;100903.94;;;-1.54;89.66
73860;BME280;62197;51.632;13.700;2024-03-08T06:57:56;100903.97;;;-1.56;89.01
73860;BME280;62197;51.632;13.700;2024-03-08T07:00:21;100901.13;;;-1.47;88.37
73860;BME280;62197;51.632;13.700;2024-03-08T07:02:51;100902.28;;;-1.26;88.24
73860;BME280;62197;51.632;13.700;2024-03-08T07:05:19;100897.75;;;-1.18;87.73
73860;BME280;62197;51.632;13.700;2024-03-08T07:07:44;100896.75;;;-1.14;87.76
73860;BME280;62197;51.632;13.700;2024-03-08T07:10:09;100895.75;;;-1.08;87.53
73860;BME280;62197;51.632;13.700;2024-03-08T07:12:39;100896.00;;;-0.89;86.83
73860;BME280;62197;51.632;13.700;2024-03-08T07:15:05;100894.84;;;-0.79;86.12
73860;BME280;62197;51.632;13.700;2024-03-08T07:17:31;100891.69;;;-0.61;86.29
73860;BME280;62197;51.632;13.700;2024-03-08T07:19:56;100891.50;;;-0.55;85.18
73860;BME280;62197;51.632;13.700;2024-03-08T07:22:24;100893.81;;;-0.47;85.00
73860;BME280;62197;51.632;13.700;2024-03-08T07:24:50;100893.91;;;-0.24;85.16
73860;BME280;62197;51.632;13.700;2024-03-08T07:27:35;100899.16;;;-0.01;83.83
73860;BME280;62197;51.632;13.700;2024-03-08T07:30:01;100898.38;;;-0.03;83.71
73860;BME280;62197;51.632;13.700;2024-03-08T07:32:27;100891.16;;;0.06;83.27
73860;BME280;62197;51.632;13.700;2024-03-08T07:34:55;100891.75;;;0.14;83.15
73860;BME280;62197;51.632;13.700;2024-03-08T07:37:20;100880.47;;;0.16;82.50
73860;BME280;62197;51.632;13.700;2024-03-08T07:39:46;100878.75;;;0.15;82.44
73860;BME280;62197;51.632;13.700;2024-03-08T07:42:11;100873.22;;;0.26;82.62
73860;BME280;62197;51.632;13.700;2024-03-08T07:44:37;100881.22;;;0.43;82.26
73860;BME280;62197;51.632;13.700;2024-03-08T07:47:03;100875.63;;;0.54;81.88
73860;BME280;62197;51.632;13.700;2024-03-08T07:49:29;100869.84;;;0.71;81.47
73860;BME280;62197;51.632;13.700;2024-03-08T07:51:55;100872.94;;;0.80;81.21
73860;BME280;62197;51.632;13.700;2024-03-08T07:54:20;100863.19;;;0.87;80.69
73860;BME280;62197;51.632;13.700;2024-03-08T07:56:46;100865.72;;;0.88;81.02
73860;BME280;62197;51.632;13.700;2024-03-08T07:59:12;100870.84;;;0.90;81.04
73860;BME280;62197;51.632;13.700;2024-03-08T08:01:37;100875.97;;;1.13;80.66
73860;BME280;62197;51.632;13.700;2024-03-08T08:04:03;100866.31;;;1.39;80.18
73860;BME280;62197;51.632;13.700;2024-03-08T08:06:28;100870.66;;;1.38;79.02
73860;BME280;62197;51.632;13.700;2024-03-08T08:08:57;100863.91;;;1.56;78.82
73860;BME280;62197;51.632;13.700;2024-03-08T08:11:22;100864.94;;;1.72;78.63
73860;BME280;62197;51.632;13.700;2024-03-08T08:13:47;100857.88;;;1.76;77.79
73860;BME280;62197;51.632;13.700;2024-03-08T08:16:13;100862.50;;;1.89;78.33
73860;BME280;62197;51.632;13.700;2024-03-08T08:18:38;100856.66;;;2.05;77.75
73860;BME280;62197;51.632;13.700;2024-03-08T08:21:04;100854.53;;;2.33;78.04
73860;BME280;62197;51.632;13.700;2024-03-08T08:23:31;100855.59;;;2.66;76.89
73860;BME280;62197;51.632;13.700;2024-03-08T08:25:57;100846.81;;;2.88;75.58
73860;BME280;62197;51.632;13.700;2024-03-08T08:28:22;100845.41;;;2.99;75.04
73860;BME280;62197;51.632;13.700;2024-03-08T08:30:48;100840.28;;;2.98;74.36
73860;BME280;62197;51.632;13.700;2024-03-08T08:33:16;100843.84;;;4.67;85.59
73860;BME280;62197;51.632;13.700;2024-03-08T08:35:41;100844.47;;;5.93;76.62
73860;BME280;62197;51.632;13.700;2024-03-08T08:38:07;100843.97;;;5.86;67.51
73860;BME280;62197;51.632;13.700;2024-03-08T08:40:34;100832.88;;;5.53;66.51
73860;BME280;62197;51.632;13.700;2024-03-08T08:43:01;100840.78;;;5.81;70.08
73860;BME280;62197;51.632;13.700;2024-03-08T08:45:29;100835.44;;;6.70;66.25
73860;BME280;62197;51.632;13.700;2024-03-08T08:47:55;100829.75;;;6.63;64.60
73860;BME280;62197;51.632;13.700;2024-03-08T08:50:20;100825.75;;;6.29;64.42
73860;BME280;62197;51.632;13.700;2024-03-08T08:52:48;100821.94;;;6.06;66.88
73860;BME280;62197;51.632;13.700;2024-03-08T08:55:14;100821.75;;;5.79;67.89
73860;BME280;62197;51.632;13.700;2024-03-08T08:57:43;100829.41;;;5.68;63.89
73860;BME280;62197;51.632;13.700;2024-03-08T09:00:09;100820.66;;;5.83;65.32
73860;BME280;62197;51.632;13.700;2024-03-08T09:02:40;100806.34;;;7.55;61.29
73860;BME280;62197;51.632;13.700;2024-03-08T09:05:06;100812.72;;;6.15;64.33
73860;BME280;62197;51.632;13.700;2024-03-08T09:07:33;100814.38;;;5.57;64.54
73860;BME280;62197;51.632;13.700;2024-03-08T09:09:59;100813.69;;;5.54;65.10
73860;BME280;62197;51.632;13.700;2024-03-08T09:12:24;100809.09;;;5.13;66.15
73860;BME280;62197;51.632;13.700;2024-03-08T09:14:50;100808.78;;;6.22;63.84
73860;BME280;62197;51.632;13.700;2024-03-08T09:17:15;100806.34;;;6.33;64.70
73860;BME280;62197;51.632;13.700;2024-03-08T09:19:49;100797.94;;;6.00;62.71
73860;BME280;62197;51.632;13.700;2024-03-08T09:22:14;100798.91;;;5.69;63.26
73860;BME280;62197;51.632;13.700;2024-03-08T09:24:39;100798.84;;;5.40;62.59
73860;BME280;62197;51.632;13.700;2024-03-08T09:27:05;100800.34;;;5.14;63.19
73860;BME280;62197;51.632;13.700;2024-03-08T09:29:30;100786.19;;;5.48;64.76
73860;BME280;62197;51.632;13.700;2024-03-08T09:31:56;100789.56;;;5.50;62.55
73860;BME280;62197;51.632;13.700;2024-03-08T09:34:21;100791.94;;;5.69;61.95
73860;BME280;62197;51.632;13.700;2024-03-08T09:36:46;100791.59;;;5.45;61.31
73860;BME280;62197;51.632;13.700;2024-03-08T09:39:12;100784.44;;;6.07;60.31
73860;BME280;62197;51.632;13.700;2024-03-08T09:41:45;100795.72;;;6.22;59.00
73860;BME280;62197;51.632;13.700;2024-03-08T09:44:13;100788.97;;;6.32;58.84
73860;BME280;62197;51.632;13.700;2024-03-08T09:46:39;100791.63;;;6.18;57.98
73860;BME280;62197;51.632;13.700;2024-03-08T09:49:05;100795.63;;;6.23;59.41
73860;BME280;62197;51.632;13.700;2024-03-08T09:51:34;100784.91;;;6.00;58.05
73860;BME280;62197;51.632;13.700;2024-03-08T09:54:05;100778.59;;;5.88;57.26
73860;BME280;62197;51.632;13.700;2024-03-08T09:56:32;100787.34;;;5.73;58.05
73860;BME280;62197;51.632;13.700;2024-03-08T09:59:00;100780.69;;;5.97;58.50
73860;BME280;62197;51.632;13.700;2024-03-08T10:01:44;100778.84;;;6.13;57.48
73860;BME280;62197;51.632;13.700;2024-03-08T10:04:11;100764.94;;;7.35;58.63
73860;BME280;62197;51.632;13.700;2024-03-08T10:06:36;100760.59;;;6.81;56.33
73860;BME280;62197;51.632;13.700;2024-03-08T10:09:01;100758.56;;;6.99;54.95
73860;BME280;62197;51.632;13.700;2024-03-08T10:11:27;100761.53;;;6.80;56.25
73860;BME280;62197;51.632;13.700;2024-03-08T10:13:52;100756.44;;;6.91;53.85
73860;BME280;62197;51.632;13.700;2024-03-08T10:16:18;100750.03;;;7.10;52.26
73860;BME280;62197;51.632;13.700;2024-03-08T10:18:45;100745.59;;;6.97;52.94
73860;BME280;62197;51.632;13.700;2024-03-08T10:21:10;100740.91;;;7.03;52.79
73860;BME280;62197;51.632;13.700;2024-03-08T10:23:36;100733.66;;;6.93;53.02
73860;BME280;62197;51.632;13.700;2024-03-08T10:26:15;100732.91;;;7.18;52.12
73860;BME280;62197;51.632;13.700;2024-03-08T10:28:42;100735.00;;;7.39;50.31
73860;BME280;62197;51.632;13.700;2024-03-08T10:31:08;100738.47;;;7.39;50.13
73860;BME280;62197;51.632;13.700;2024-03-08T10:33:34;100731.22;;;7.17;49.85
73860;BME280;62197;51.632;13.700;2024-03-08T10:36:00;100735.63;;;7.29;49.27
73860;BME280;62197;51.632;13.700;2024-03-08T10:38:26;100735.16;;;7.75;48.45
73860;BME280;62197;51.632;13.700;2024-03-08T10:40:52;100726.44;;;7.87;47.70
73860;BME280;62197;51.632;13.700;2024-03-08T10:43:23;100730.88;;;8.36;45.92
73860;BME280;62197;51.632;13.700;2024-03-08T10:48:58;100719.50;;;8.12;46.05
73860;BME280;62197;51.632;13.700;2024-03-08T10:51:28;100722.66;;;9.01;44.92
73860;BME280;62197;51.632;13.700;2024-03-08T10:53:56;100722.25;;;9.18;42.25
73860;BME280;62197;51.632;13.700;2024-03-08T10:56:22;100706.84;;;9.82;41.11
73860;BME280;62197;51.632;13.700;2024-03-08T10:58:48;100707.66;;;9.72;41.16
73860;BME280;62197;51.632;13.700;2024-03-08T11:01:14;100710.91;;;9.86;39.12
73860;BME280;62197;51.632;13.700;2024-03-08T11:06:06;100696.31;;;10.27;38.98
73860;BME280;62197;51.632;13.700;2024-03-08T11:08:32;100694.00;;;10.45;36.81
73860;BME280;62197;51.632;13.700;2024-03-08T11:10:59;100695.22;;;10.84;35.98
73860;BME280;62197;51.632;13.700;2024-03-08T11:13:36;100697.06;;;10.61;35.95
73860;BME280;62197;51.632;13.700;2024-03-08T11:16:07;100688.69;;;11.41;35.16
73860;BME280;62197;51.632;13.700;2024-03-08T11:18:33;100685.38;;;11.69;34.96
73860;BME280;62197;51.632;13.700;2024-03-08T11:21:09;100676.50;;;11.49;33.79
73860;BME280;62197;51.632;13.700;2024-03-08T11:23:40;100664.34;;;12.19;32.50
73860;BME280;62197;51.632;13.700;2024-03-08T11:26:19;100670.41;;;12.98;33.87
73860;BME280;62197;51.632;13.700;2024-03-08T11:28:45;100671.38;;;12.78;31.55
73860;BME280;62197;51.632;13.700;2024-03-08T11:33:39;100658.25;;;12.28;31.93
73860;BME280;62197;51.632;13.700;2024-03-08T11:36:24;100648.53;;;13.35;31.46
73860;BME280;62197;51.632;13.700;2024-03-08T11:38:53;100651.66;;;13.57;30.80
73860;BME280;62197;51.632;13.700;2024-03-08T11:41:22;100640.75;;;14.52;28.52
73860;BME280;62197;51.632;13.700;2024-03-08T11:43:49;100642.97;;;13.75;29.35
73860;BME280;62197;51.632;13.700;2024-03-08T11:46:15;100636.06;;;13.54;29.17
73860;BME280;62197;51.632;13.700;2024-03-08T11:48:42;100631.59;;;13.28;30.63
73860;BME280;62197;51.632;13.700;2024-03-08T11:51:11;100629.78;;;13.28;31.13
73860;BME280;62197;51.632;13.700;2024-03-08T11:53:38;100631.91;;;12.96;30.49
73860;BME280;62197;51.632;13.700;2024-03-08T11:56:10;100623.53;;;13.66;30.12
73860;BME280;62197;51.632;13.700;2024-03-08T11:58:37;100620.47;;;13.24;30.04
73860;BME280;62197;51.632;13.700;2024-03-08T12:01:09;100610.72;;;15.05;29.12
73860;BME280;62197;51.632;13.700;2024-03-08T12:03:41;100605.53;;;15.89;26.86
73860;BME280;62197;51.632;13.700;2024-03-08T12:06:10;100612.28;;;16.26;26.80
73860;BME280;62197;51.632;13.700;2024-03-08T12:08:36;100610.59;;;14.89;29.64
73860;BME280;62197;51.632;13.700;2024-03-08T12:11:03;100604.06;;;15.01;28.76
73860;BME280;62197;51.632;13.700;2024-03-08T12:13:33;100600.72;;;15.25;27.33
73860;BME280;62197;51.632;13.700;2024-03-08T12:16:02;100605.56;;;14.42;28.66
73860;BME280;62197;51.632;13.700;2024-03-08T12:18:35;100595.81;;;15.64;28.51
73860;BME280;62197;51.632;13.700;2024-03-08T12:21:18;100595.59;;;15.23;27.98
73860;BME280;62197;51.632;13.700;2024-03-08T12:23:46;100595.38;;;14.91;27.49
73860;BME280;62197;51.632;13.700;2024-03-08T12:26:17;100593.31;;;15.03;28.46
73860;BME280;62197;51.632;13.700;2024-03-08T12:28:44;100589.50;;;15.99;26.73
73860;BME280;62197;51.632;13.700;2024-03-08T12:31:12;100586.59;;;16.43;26.90
73860;BME280;62197;51.632;13.700;2024-03-08T12:33:54;100580.41;;;16.26;27.70
73860;BME280;62197;51.632;13.700;2024-03-08T12:36:21;100586.25;;;16.38;25.93
73860;BME280;62197;51.632;13.700;2024-03-08T12:38:47;100574.91;;;16.03;26.13
73860;BME280;62197;51.632;13.700;2024-03-08T12:41:16;100566.66;;;16.31;27.43
73860;BME280;62197;51.632;13.700;2024-03-08T12:43:43;100564.97;;;15.29;28.07
73860;BME280;62197;51.632;13.700;2024-03-08T12:46:16;100565.66;;;16.32;26.62
73860;BME280;62197;51.632;13.700;2024-03-08T12:48:42;100568.50;;;16.95;25.45